sensor_id;sensor_type;location;lat;lon;timestamp;temperature;humidity
21417;DHT22;10869;52.238;10.716;2023-09-08T03:03:11;20.50;95.90
21417;DHT22;10869;52.238;10.716;2023-09-08T03:05:38;20.40;96.20
21417;DHT22;10869;52.238;10.716;2023-09-08T03:08:04;20.40;96.20
21417;DHT22;10869;52.238;10.716;2023-09-08T03:10:33;20.40;96.20
21417;DHT22;10869;52.238;10.716;2023-09-08T03:13:02;20.30;96.30
21417;DHT22;10869;52.238;10.716;2023-09-08T03:15:28;20.30;96.30
21417;DHT22;10869;52.238;10.716;2023-09-08T03:17:55;20.30;96.40
21417;DHT22;10869;52.238;10.716;2023-09-08T03:20:21;20.30;96.40
21417;DHT22;10869;52.238;10.716;2023-09-08T03:22:54;20.30;96.40
21417;DHT22;10869;52.238;10.716;2023-09-08T03:25:21;20.30;96.30
21417;DHT22;10869;52.238;10.716;2023-09-08T03:27:48;20.30;96.40
21417;DHT22;10869;52.238;10.716;2023-09-08T03:30:14;20.30;96.50
21417;DHT22;10869;52.238;10.716;2023-09-08T03:32:40;20.30;96.60
21417;DHT22;10869;52.238;10.716;2023-09-08T03:35:06;20.30;96.60
21417;DHT22;10869;52.238;10.716;2023-09-08T03:37:34;20.30;96.60
21417;DHT22;10869;52.238;10.716;2023-09-08T03:40:00;20.30;96.50
21417;DHT22;10869;52.238;10.716;2023-09-08T03:42:26;20.30;96.50
21417;DHT22;10869;52.238;10.716;2023-09-08T03:44:52;20.30;96.50
21417;DHT22;10869;52.238;10.716;2023-09-08T03:49:56;20.20;96.50
21417;DHT22;10869;52.238;10.716;2023-09-08T03:52:56;20.20;96.60
21417;DHT22;10869;52.238;10.716;2023-09-08T03:58:08;20.20;96.70
21417;DHT22;10869;52.238;10.716;2023-09-08T04:00:35;20.20;96.60
21417;DHT22;10869;52.238;10.716;2023-09-08T04:03:00;20.20;96.80
21417;DHT22;10869;52.238;10.716;2023-09-08T04:05:26;20.20;96.70
21417;DHT22;10869;52.238;10.716;2023-09-08T04:07:52;20.20;96.80
21417;DHT22;10869;52.238;10.716;2023-09-08T04:10:18;20.10;96.70
21417;DHT22;10869;52.238;10.716;2023-09-08T04:12:44;20.10;96.80
21417;DHT22;10869;52.238;10.716;2023-09-08T04:15:10;20.10;96.90
21417;DHT22;10869;52.238;10.716;2023-09-08T04:17:37;20.10;96.90
21417;DHT22;10869;52.238;10.716;2023-09-08T04:20:04;20.10;97.00
21417;DHT22;10869;52.238;10.716;2023-09-08T04:22:31;20.10;97.00
21417;DHT22;10869;52.238;10.716;2023-09-08T04:24:57;20.10;97.00
21417;DHT22;10869;52.238;10.716;2023-09-08T04:27:24;20.10;97.10
21417;DHT22;10869;52.238;10.716;2023-09-08T04:29:52;20.10;97.20
21417;DHT22;10869;52.238;10.716;2023-09-08T04:32:18;20.10;97.20
21417;DHT22;10869;52.238;10.716;2023-09-08T04:34:44;20.10;97.10
21417;DHT22;10869;52.238;10.716;2023-09-08T04:37:11;20.10;97.20
21417;DHT22;10869;52.238;10.716;2023-09-08T04:39:37;20.10;97.20
21417;DHT22;10869;52.238;10.716;2023-09-08T04:42:03;20.10;97.20
21417;DHT22;10869;52.238;10.716;2023-09-08T04:44:30;20.20;97.20
21417;DHT22;10869;52.238;10.716;2023-09-08T04:46:58;20.20;97.20
21417;DHT22;10869;52.238;10.716;2023-09-08T04:49:24;20.10;97.30
21417;DHT22;10869;52.238;10.716;2023-09-08T04:51:50;20.20;97.40
21417;DHT22;10869;52.238;10.716;2023-09-08T04:54:23;20.20;97.50
21417;DHT22;10869;52.238;10.716;2023-09-08T04:56:52;20.20;97.40
21417;DHT22;10869;52.238;10.716;2023-09-08T04:59:21;20.20;97.30
21417;DHT22;10869;52.238;10.716;2023-09-08T05:01:49;20.20;97.50
21417;DHT22;10869;52.238;10.716;2023-09-08T05:04:17;20.20;97.50
21417;DHT22;10869;52.238;10.716;2023-09-08T05:06:44;20.20;97.60
21417;DHT22;10869;52.238;10.716;2023-09-08T05:09:12;20.20;97.60
21417;DHT22;10869;52.238;10.716;2023-09-08T05:11:42;20.20;97.60
21417;DHT22;10869;52.238;10.716;2023-09-08T05:14:09;20.20;97.50
21417;DHT22;10869;52.238;10.716;2023-09-08T05:16:35;20.20;97.60
21417;DHT22;10869;52.238;10.716;2023-09-08T05:19:11;20.20;97.70
21417;DHT22;10869;52.238;10.716;2023-09-08T05:21:45;20.20;97.70
21417;DHT22;10869;52.238;10.716;2023-09-08T05:24:31;20.20;97.90
21417;DHT22;10869;52.238;10.716;2023-09-08T05:32:29;20.30;97.80
21417;DHT22;10869;52.238;10.716;2023-09-08T05:37:37;20.30;97.80
21417;DHT22;10869;52.238;10.716;2023-09-08T05:40:03;20.40;97.80
21417;DHT22;10869;52.238;10.716;2023-09-08T05:42:30;20.40;97.70
21417;DHT22;10869;52.238;10.716;2023-09-08T05:44:57;20.50;97.60
21417;DHT22;10869;52.238;10.716;2023-09-08T05:47:25;20.50;97.50
21417;DHT22;10869;52.238;10.716;2023-09-08T05:49:57;20.60;97.60
21417;DHT22;10869;52.238;10.716;2023-09-08T05:52:23;20.60;97.40
21417;DHT22;10869;52.238;10.716;2023-09-08T06:06:08;21.00;97.00
21417;DHT22;10869;52.238;10.716;2023-09-08T06:16:20;21.20;97.10
21417;DHT22;10869;52.238;10.716;2023-09-08T06:18:47;21.30;96.90
21417;DHT22;10869;52.238;10.716;2023-09-08T06:24:38;21.40;96.80
21417;DHT22;10869;52.238;10.716;2023-09-08T06:30:26;21.60;97.00
21417;DHT22;10869;52.238;10.716;2023-09-08T06:36:16;21.70;96.80
21417;DHT22;10869;52.238;10.716;2023-09-08T06:38:43;21.80;96.70
21417;DHT22;10869;52.238;10.716;2023-09-08T06:41:11;21.80;96.80
21417;DHT22;10869;52.238;10.716;2023-09-08T06:46:59;22.00;96.70
21417;DHT22;10869;52.238;10.716;2023-09-08T06:49:26;22.10;96.70
21417;DHT22;10869;52.238;10.716;2023-09-08T06:54:52;22.20;96.60
21417;DHT22;10869;52.238;10.716;2023-09-08T07:00:30;22.40;96.50
21417;DHT22;10869;52.238;10.716;2023-09-08T07:03:01;22.50;96.60
21417;DHT22;10869;52.238;10.716;2023-09-08T07:05:30;22.60;96.40
21417;DHT22;10869;52.238;10.716;2023-09-08T07:07:56;22.70;96.40
21417;DHT22;10869;52.238;10.716;2023-09-08T07:10:21;22.80;96.20
21417;DHT22;10869;52.238;10.716;2023-09-08T07:12:47;22.90;95.90
21417;DHT22;10869;52.238;10.716;2023-09-08T07:15:13;23.00;95.90
21417;DHT22;10869;52.238;10.716;2023-09-08T07:17:40;23.20;95.50
21417;DHT22;10869;52.238;10.716;2023-09-08T07:20:06;23.30;95.80
21417;DHT22;10869;52.238;10.716;2023-09-08T07:25:55;23.60;95.40
21417;DHT22;10869;52.238;10.716;2023-09-08T07:28:23;23.60;95.50
21417;DHT22;10869;52.238;10.716;2023-09-08T07:30:49;23.70;95.40
21417;DHT22;10869;52.238;10.716;2023-09-08T07:36:36;23.90;95.20
21417;DHT22;10869;52.238;10.716;2023-09-08T07:39:03;24.00;94.90
21417;DHT22;10869;52.238;10.716;2023-09-08T07:44:51;24.20;94.70
21417;DHT22;10869;52.238;10.716;2023-09-08T07:47:16;24.30;94.50
21417;DHT22;10869;52.238;10.716;2023-09-08T07:49:45;24.40;94.10
21417;DHT22;10869;52.238;10.716;2023-09-08T07:52:12;24.50;94.00
21417;DHT22;10869;52.238;10.716;2023-09-08T08:36:06;26.00;90.70
21417;DHT22;10869;52.238;10.716;2023-09-08T08:43:43;26.10;90.50
21417;DHT22;10869;52.238;10.716;2023-09-08T08:46:12;26.30;91.40
21417;DHT22;10869;52.238;10.716;2023-09-08T08:48:40;26.30;90.90
21417;DHT22;10869;52.238;10.716;2023-09-08T09:40:42;28.10;87.80
21417;DHT22;10869;52.238;10.716;2023-09-08T10:45:18;29.50;84.50
21417;DHT22;10869;52.238;10.716;2023-09-08T11:00:53;29.90;84.20
21417;DHT22;10869;52.238;10.716;2023-09-08T11:06:38;29.80;85.60
21417;DHT22;10869;52.238;10.716;2023-09-08T11:09:08;29.80;84.30
21417;DHT22;10869;52.238;10.716;2023-09-08T11:11:40;29.90;84.40
21417;DHT22;10869;52.238;10.716;2023-09-08T11:14:06;30.00;84.60
21417;DHT22;10869;52.238;10.716;2023-09-08T11:16:39;30.00;84.20
21417;DHT22;10869;52.238;10.716;2023-09-08T11:19:05;29.90;84.40
21417;DHT22;10869;52.238;10.716;2023-09-08T11:21:35;30.00;82.70
21417;DHT22;10869;52.238;10.716;2023-09-08T11:24:03;30.20;82.70
21417;DHT22;10869;52.238;10.716;2023-09-08T11:26:38;30.40;83.30
21417;DHT22;10869;52.238;10.716;2023-09-08T11:32:38;30.50;83.20
21417;DHT22;10869;52.238;10.716;2023-09-08T11:58:43;30.80;81.90
